sensor_id;sensor_type;location;lat;lon;timestamp;temperature;humidity
78550;DHT22;68091;52.130;5.570;2023-04-16T00:00:50;8.70;99.90
78550;DHT22;68091;52.130;5.570;2023-04-16T00:03:18;8.70;99.90
78550;DHT22;68091;52.130;5.570;2023-04-16T00:05:44;8.70;99.90
78550;DHT22;68091;52.130;5.570;2023-04-16T00:08:10;8.60;99.90
78550;DHT22;68091;52.130;5.570;2023-04-16T00:10:36;8.60;99.90
78550;DHT22;68091;52.130;5.570;2023-04-16T00:13:02;8.70;99.90
78550;DHT22;68091;52.130;5.570;2023-04-16T00:15:28;8.60;99.90
78550;DHT22;68091;52.130;5.570;2023-04-16T00:17:54;8.60;99.90
78550;DHT22;68091;52.130;5.570;2023-04-16T00:20:20;8.60;99.90
78550;DHT22;68091;52.130;5.570;2023-04-16T00:22:46;8.50;99.90
78550;DHT22;68091;52.130;5.570;2023-04-16T00:25:12;8.60;99.90
78550;DHT22;68091;52.130;5.570;2023-04-16T00:27:38;8.60;99.90
78550;DHT22;68091;52.130;5.570;2023-04-16T00:30:05;8.70;99.90
78550;DHT22;68091;52.130;5.570;2023-04-16T00:32:31;8.70;99.90
78550;DHT22;68091;52.130;5.570;2023-04-16T00:34:57;8.80;99.90
78550;DHT22;68091;52.130;5.570;2023-04-16T00:37:23;8.80;99.90
78550;DHT22;68091;52.130;5.570;2023-04-16T00:39:49;8.80;99.90
78550;DHT22;68091;52.130;5.570;2023-04-16T00:45:08;8.70;99.90
78550;DHT22;68091;52.130;5.570;2023-04-16T00:47:34;8.70;99.90
78550;DHT22;68091;52.130;5.570;2023-04-16T00:50:01;8.70;99.90
78550;DHT22;68091;52.130;5.570;2023-04-16T00:52:27;8.70;99.90
78550;DHT22;68091;52.130;5.570;2023-04-16T00:54:54;8.70;99.90
78550;DHT22;68091;52.130;5.570;2023-04-16T00:57:21;8.70;99.90
78550;DHT22;68091;52.130;5.570;2023-04-16T00:59:48;8.70;99.90
78550;DHT22;68091;52.130;5.570;2023-04-16T01:02:14;8.80;99.90
78550;DHT22;68091;52.130;5.570;2023-04-16T01:04:40;8.70;99.90
78550;DHT22;68091;52.130;5.570;2023-04-16T01:07:06;8.70;99.90
78550;DHT22;68091;52.130;5.570;2023-04-16T01:09:32;8.70;99.90
78550;DHT22;68091;52.130;5.570;2023-04-16T01:11:58;8.70;99.90
78550;DHT22;68091;52.130;5.570;2023-04-16T01:14:24;8.70;99.90
78550;DHT22;68091;52.130;5.570;2023-04-16T01:16:49;8.70;99.90
78550;DHT22;68091;52.130;5.570;2023-04-16T01:19:15;8.70;99.90
78550;DHT22;68091;52.130;5.570;2023-04-16T01:21:41;8.60;99.90
78550;DHT22;68091;52.130;5.570;2023-04-16T01:24:09;8.60;99.90
78550;DHT22;68091;52.130;5.570;2023-04-16T01:26:35;8.70;99.90
78550;DHT22;68091;52.130;5.570;2023-04-16T01:29:02;8.70;99.90
78550;DHT22;68091;52.130;5.570;2023-04-16T01:31:27;8.70;99.90
78550;DHT22;68091;52.130;5.570;2023-04-16T01:33:53;8.70;99.90
78550;DHT22;68091;52.130;5.570;2023-04-16T01:36:19;8.70;99.90
78550;DHT22;68091;52.130;5.570;2023-04-16T01:38:45;8.70;99.90
78550;DHT22;68091;52.130;5.570;2023-04-16T01:41:11;8.70;99.90
78550;DHT22;68091;52.130;5.570;2023-04-16T01:43:36;8.70;99.90
78550;DHT22;68091;52.130;5.570;2023-04-16T01:46:25;8.70;99.90
78550;DHT22;68091;52.130;5.570;2023-04-16T01:48:51;8.80;99.90
78550;DHT22;68091;52.130;5.570;2023-04-16T01:51:19;8.70;99.90
78550;DHT22;68091;52.130;5.570;2023-04-16T01:53:45;8.70;99.90
78550;DHT22;68091;52.130;5.570;2023-04-16T01:56:11;8.80;99.90
78550;DHT22;68091;52.130;5.570;2023-04-16T01:58:37;8.80;99.90
78550;DHT22;68091;52.130;5.570;2023-04-16T02:01:03;8.80;99.90
78550;DHT22;68091;52.130;5.570;2023-04-16T02:03:30;8.80;99.90
78550;DHT22;68091;52.130;5.570;2023-04-16T02:05:56;8.80;99.90
78550;DHT22;68091;52.130;5.570;2023-04-16T02:08:22;8.70;99.90
78550;DHT22;68091;52.130;5.570;2023-04-16T02:10:52;8.70;99.90
78550;DHT22;68091;52.130;5.570;2023-04-16T02:13:18;8.80;99.90
78550;DHT22;68091;52.130;5.570;2023-04-16T02:15:49;8.80;99.90
78550;DHT22;68091;52.130;5.570;2023-04-16T02:18:15;8.80;99.90
78550;DHT22;68091;52.130;5.570;2023-04-16T02:20:45;8.70;99.90
78550;DHT22;68091;52.130;5.570;2023-04-16T02:23:12;8.70;99.90
78550;DHT22;68091;52.130;5.570;2023-04-16T02:25:46;8.70;99.90
78550;DHT22;68091;52.130;5.570;2023-04-16T02:28:13;8.80;99.90
78550;DHT22;68091;52.130;5.570;2023-04-16T02:30:39;8.80;99.90
78550;DHT22;68091;52.130;5.570;2023-04-16T02:33:07;8.70;99.90
78550;DHT22;68091;52.130;5.570;2023-04-16T02:35:37;8.70;99.90
78550;DHT22;68091;52.130;5.570;2023-04-16T02:38:04;8.70;99.90
78550;DHT22;68091;52.130;5.570;2023-04-16T02:40:30;8.70;99.90
78550;DHT22;68091;52.130;5.570;2023-04-16T02:42:56;8.70;99.90
78550;DHT22;68091;52.130;5.570;2023-04-16T02:45:22;8.70;99.90
78550;DHT22;68091;52.130;5.570;2023-04-16T02:47:49;8.80;99.90
78550;DHT22;68091;52.130;5.570;2023-04-16T02:50:15;8.80;99.90
78550;DHT22;68091;52.130;5.570;2023-04-16T02:52:41;8.70;99.90
78550;DHT22;68091;52.130;5.570;2023-04-16T02:55:08;8.70;99.90
78550;DHT22;68091;52.130;5.570;2023-04-16T02:57:34;8.80;99.90
78550;DHT22;68091;52.130;5.570;2023-04-16T03:00:00;8.80;99.90
78550;DHT22;68091;52.130;5.570;2023-04-16T03:02:26;8.70;99.90
78550;DHT22;68091;52.130;5.570;2023-04-16T03:04:52;8.70;99.90
78550;DHT22;68091;52.130;5.570;2023-04-16T03:07:18;8.70;99.90
78550;DHT22;68091;52.130;5.570;2023-04-16T03:09:44;8.70;99.90
78550;DHT22;68091;52.130;5.570;2023-04-16T03:12:10;8.80;99.90
78550;DHT22;68091;52.130;5.570;2023-04-16T03:14:36;8.80;99.90
78550;DHT22;68091;52.130;5.570;2023-04-16T03:17:01;8.90;99.90
78550;DHT22;68091;52.130;5.570;2023-04-16T03:19:27;8.90;99.90
78550;DHT22;68091;52.130;5.570;2023-04-16T03:21:53;8.80;99.90
78550;DHT22;68091;52.130;5.570;2023-04-16T03:24:19;8.80;99.90
78550;DHT22;68091;52.130;5.570;2023-04-16T03:26:44;8.80;99.90
78550;DHT22;68091;52.130;5.570;2023-04-16T03:29:10;8.80;99.90
78550;DHT22;68091;52.130;5.570;2023-04-16T03:31:36;8.80;99.90
78550;DHT22;68091;52.130;5.570;2023-04-16T03:34:02;8.70;99.90
78550;DHT22;68091;52.130;5.570;2023-04-16T03:36:28;8.80;99.90
78550;DHT22;68091;52.130;5.570;2023-04-16T03:38:53;8.80;99.90
78550;DHT22;68091;52.130;5.570;2023-04-16T03:41:19;8.80;99.90
78550;DHT22;68091;52.130;5.570;2023-04-16T03:43:45;8.90;99.90
78550;DHT22;68091;52.130;5.570;2023-04-16T03:46:11;8.80;99.90
78550;DHT22;68091;52.130;5.570;2023-04-16T03:48:37;8.80;99.90
78550;DHT22;68091;52.130;5.570;2023-04-16T03:51:03;8.90;99.90
78550;DHT22;68091;52.130;5.570;2023-04-16T03:53:29;8.90;99.90
78550;DHT22;68091;52.130;5.570;2023-04-16T03:55:54;8.80;99.90
78550;DHT22;68091;52.130;5.570;2023-04-16T03:58:20;8.70;99.90
78550;DHT22;68091;52.130;5.570;2023-04-16T04:00:46;8.80;99.90
78550;DHT22;68091;52.130;5.570;2023-04-16T04:03:12;8.70;99.90
78550;DHT22;68091;52.130;5.570;2023-04-16T04:05:42;8.70;99.90
78550;DHT22;68091;52.130;5.570;2023-04-16T04:08:09;8.80;99.90
78550;DHT22;68091;52.130;5.570;2023-04-16T04:10:35;8.70;99.90
78550;DHT22;68091;52.130;5.570;2023-04-16T04:13:03;8.70;99.90
78550;DHT22;68091;52.130;5.570;2023-04-16T04:15:29;8.70;99.90
78550;DHT22;68091;52.130;5.570;2023-04-16T04:17:55;8.80;99.90
78550;DHT22;68091;52.130;5.570;2023-04-16T04:20:21;8.80;99.90
78550;DHT22;68091;52.130;5.570;2023-04-16T04:22:47;8.70;99.90
78550;DHT22;68091;52.130;5.570;2023-04-16T04:25:15;8.70;99.90
78550;DHT22;68091;52.130;5.570;2023-04-16T04:27:40;8.70;99.90
78550;DHT22;68091;52.130;5.570;2023-04-16T04:30:07;8.80;99.90
78550;DHT22;68091;52.130;5.570;2023-04-16T04:32:33;8.70;99.90
78550;DHT22;68091;52.130;5.570;2023-04-16T04:35:00;8.70;99.90
78550;DHT22;68091;52.130;5.570;2023-04-16T04:37:26;8.80;99.90
78550;DHT22;68091;52.130;5.570;2023-04-16T04:39:52;8.80;99.90
78550;DHT22;68091;52.130;5.570;2023-04-16T04:42:20;8.80;99.90
78550;DHT22;68091;52.130;5.570;2023-04-16T04:44:46;8.80;99.90
78550;DHT22;68091;52.130;5.570;2023-04-16T04:47:13;8.80;99.90
78550;DHT22;68091;52.130;5.570;2023-04-16T04:49:39;8.80;99.90
78550;DHT22;68091;52.130;5.570;2023-04-16T04:52:05;8.70;99.90
78550;DHT22;68091;52.130;5.570;2023-04-16T04:54:32;8.80;99.90
78550;DHT22;68091;52.130;5.570;2023-04-16T04:57:07;8.80;99.90
78550;DHT22;68091;52.130;5.570;2023-04-16T04:59:33;8.80;99.90
78550;DHT22;68091;52.130;5.570;2023-04-16T05:01:59;8.80;99.90
78550;DHT22;68091;52.130;5.570;2023-04-16T05:04:26;8.80;99.90
78550;DHT22;68091;52.130;5.570;2023-04-16T05:06:52;8.80;99.90
78550;DHT22;68091;52.130;5.570;2023-04-16T05:09:18;8.80;99.90
78550;DHT22;68091;52.130;5.570;2023-04-16T05:11:43;8.80;99.90
78550;DHT22;68091;52.130;5.570;2023-04-16T05:14:09;8.90;99.90
78550;DHT22;68091;52.130;5.570;2023-04-16T05:16:36;8.90;99.90
78550;DHT22;68091;52.130;5.570;2023-04-16T05:19:02;8.90;99.90
78550;DHT22;68091;52.130;5.570;2023-04-16T05:21:28;8.80;99.90
78550;DHT22;68091;52.130;5.570;2023-04-16T05:23:54;8.80;99.90
78550;DHT22;68091;52.130;5.570;2023-04-16T05:26:20;8.90;99.90
78550;DHT22;68091;52.130;5.570;2023-04-16T05:28:46;8.80;99.90
78550;DHT22;68091;52.130;5.570;2023-04-16T05:31:11;8.80;99.90
78550;DHT22;68091;52.130;5.570;2023-04-16T05:33:37;8.80;99.90
78550;DHT22;68091;52.130;5.570;2023-04-16T05:36:04;8.80;99.90
78550;DHT22;68091;52.130;5.570;2023-04-16T05:38:29;8.80;99.90
78550;DHT22;68091;52.130;5.570;2023-04-16T05:40:57;8.80;99.90
78550;DHT22;68091;52.130;5.570;2023-04-16T05:43:23;8.90;99.90
78550;DHT22;68091;52.130;5.570;2023-04-16T05:45:49;8.90;99.90
78550;DHT22;68091;52.130;5.570;2023-04-16T05:48:15;8.90;99.90
78550;DHT22;68091;52.130;5.570;2023-04-16T05:50:41;8.90;99.90
78550;DHT22;68091;52.130;5.570;2023-04-16T05:53:08;8.90;99.90
78550;DHT22;68091;52.130;5.570;2023-04-16T05:55:34;9.00;99.90
78550;DHT22;68091;52.130;5.570;2023-04-16T05:58:03;8.90;99.90
78550;DHT22;68091;52.130;5.570;2023-04-16T06:00:30;8.90;99.90
78550;DHT22;68091;52.130;5.570;2023-04-16T06:02:56;9.00;99.90
78550;DHT22;68091;52.130;5.570;2023-04-16T06:05:23;9.00;99.90
78550;DHT22;68091;52.130;5.570;2023-04-16T06:07:49;8.90;99.90
78550;DHT22;68091;52.130;5.570;2023-04-16T06:10:15;9.00;99.90
78550;DHT22;68091;52.130;5.570;2023-04-16T06:12:41;9.00;99.90
78550;DHT22;68091;52.130;5.570;2023-04-16T06:15:07;9.00;99.90
78550;DHT22;68091;52.130;5.570;2023-04-16T06:17:33;9.00;99.90
78550;DHT22;68091;52.130;5.570;2023-04-16T06:19:59;9.10;99.90
78550;DHT22;68091;52.130;5.570;2023-04-16T06:22:25;9.00;99.90
78550;DHT22;68091;52.130;5.570;2023-04-16T06:24:52;9.10;99.90
78550;DHT22;68091;52.130;5.570;2023-04-16T06:27:18;9.00;99.90
78550;DHT22;68091;52.130;5.570;2023-04-16T06:29:44;9.00;99.90
78550;DHT22;68091;52.130;5.570;2023-04-16T06:32:10;9.10;99.90
78550;DHT22;68091;52.130;5.570;2023-04-16T06:34:37;9.10;99.90
78550;DHT22;68091;52.130;5.570;2023-04-16T06:37:06;9.20;99.90
78550;DHT22;68091;52.130;5.570;2023-04-16T06:39:32;9.20;99.90
78550;DHT22;68091;52.130;5.570;2023-04-16T06:41:57;9.10;99.90
78550;DHT22;68091;52.130;5.570;2023-04-16T06:44:23;9.10;99.90
78550;DHT22;68091;52.130;5.570;2023-04-16T06:46:49;9.10;99.90
78550;DHT22;68091;52.130;5.570;2023-04-16T06:49:15;9.20;99.90
78550;DHT22;68091;52.130;5.570;2023-04-16T06:51:41;9.30;99.90
78550;DHT22;68091;52.130;5.570;2023-04-16T06:54:07;9.30;99.90
78550;DHT22;68091;52.130;5.570;2023-04-16T06:56:33;9.30;99.90
78550;DHT22;68091;52.130;5.570;2023-04-16T06:59:00;9.30;99.90
78550;DHT22;68091;52.130;5.570;2023-04-16T07:01:26;9.30;99.90
78550;DHT22;68091;52.130;5.570;2023-04-16T07:03:53;9.30;99.90
78550;DHT22;68091;52.130;5.570;2023-04-16T07:06:19;9.40;99.90
78550;DHT22;68091;52.130;5.570;2023-04-16T07:08:44;9.40;99.90
78550;DHT22;68091;52.130;5.570;2023-04-16T07:11:10;9.40;99.90
78550;DHT22;68091;52.130;5.570;2023-04-16T07:13:36;9.40;99.90
78550;DHT22;68091;52.130;5.570;2023-04-16T07:16:02;9.30;99.90
78550;DHT22;68091;52.130;5.570;2023-04-16T07:18:28;9.30;99.90
78550;DHT22;68091;52.130;5.570;2023-04-16T07:20:57;9.30;99.90
78550;DHT22;68091;52.130;5.570;2023-04-16T07:23:23;9.40;99.90
78550;DHT22;68091;52.130;5.570;2023-04-16T07:25:49;9.40;99.90
78550;DHT22;68091;52.130;5.570;2023-04-16T07:28:14;9.50;99.90
78550;DHT22;68091;52.130;5.570;2023-04-16T07:30:43;9.40;99.90
78550;DHT22;68091;52.130;5.570;2023-04-16T07:33:09;9.40;99.90
78550;DHT22;68091;52.130;5.570;2023-04-16T07:35:35;9.40;99.90
78550;DHT22;68091;52.130;5.570;2023-04-16T07:38:01;9.50;99.90
78550;DHT22;68091;52.130;5.570;2023-04-16T07:40:27;9.50;99.90
78550;DHT22;68091;52.130;5.570;2023-04-16T07:42:54;9.50;99.90
78550;DHT22;68091;52.130;5.570;2023-04-16T07:45:20;9.50;99.90
78550;DHT22;68091;52.130;5.570;2023-04-16T07:47:46;9.40;99.90
78550;DHT22;68091;52.130;5.570;2023-04-16T07:50:12;9.50;99.90
78550;DHT22;68091;52.130;5.570;2023-04-16T07:52:38;9.50;99.90
78550;DHT22;68091;52.130;5.570;2023-04-16T07:55:09;9.70;99.90
78550;DHT22;68091;52.130;5.570;2023-04-16T07:57:35;9.60;99.90
78550;DHT22;68091;52.130;5.570;2023-04-16T08:00:01;9.70;99.90
78550;DHT22;68091;52.130;5.570;2023-04-16T08:02:29;9.70;99.90
78550;DHT22;68091;52.130;5.570;2023-04-16T08:04:55;9.60;99.90
78550;DHT22;68091;52.130;5.570;2023-04-16T08:07:21;9.70;99.90
78550;DHT22;68091;52.130;5.570;2023-04-16T08:09:51;9.60;99.90
78550;DHT22;68091;52.130;5.570;2023-04-16T08:12:17;9.70;99.90
78550;DHT22;68091;52.130;5.570;2023-04-16T08:14:44;9.60;99.90
78550;DHT22;68091;52.130;5.570;2023-04-16T08:17:11;9.70;99.90
78550;DHT22;68091;52.130;5.570;2023-04-16T08:19:37;9.80;99.90
78550;DHT22;68091;52.130;5.570;2023-04-16T08:22:02;9.80;99.90
78550;DHT22;68091;52.130;5.570;2023-04-16T08:24:28;9.80;99.90
78550;DHT22;68091;52.130;5.570;2023-04-16T08:26:54;9.90;99.90
78550;DHT22;68091;52.130;5.570;2023-04-16T08:29:20;9.90;99.90
78550;DHT22;68091;52.130;5.570;2023-04-16T08:31:46;10.00;99.90
78550;DHT22;68091;52.130;5.570;2023-04-16T08:34:12;10.00;99.90
78550;DHT22;68091;52.130;5.570;2023-04-16T08:36:39;10.00;99.90
78550;DHT22;68091;52.130;5.570;2023-04-16T08:39:05;10.00;99.90
78550;DHT22;68091;52.130;5.570;2023-04-16T08:41:32;10.10;99.90
78550;DHT22;68091;52.130;5.570;2023-04-16T08:44:13;10.10;99.90
78550;DHT22;68091;52.130;5.570;2023-04-16T08:46:42;10.20;99.90
78550;DHT22;68091;52.130;5.570;2023-04-16T08:49:14;10.30;99.90
78550;DHT22;68091;52.130;5.570;2023-04-16T08:51:42;10.20;99.90
78550;DHT22;68091;52.130;5.570;2023-04-16T08:54:12;10.20;99.90
78550;DHT22;68091;52.130;5.570;2023-04-16T08:56:40;10.20;99.90
78550;DHT22;68091;52.130;5.570;2023-04-16T08:59:08;10.40;99.90
78550;DHT22;68091;52.130;5.570;2023-04-16T09:01:34;10.30;99.90
78550;DHT22;68091;52.130;5.570;2023-04-16T09:04:04;10.40;99.90
78550;DHT22;68091;52.130;5.570;2023-04-16T09:06:32;10.30;99.90
78550;DHT22;68091;52.130;5.570;2023-04-16T09:08:59;10.40;99.90
78550;DHT22;68091;52.130;5.570;2023-04-16T09:11:29;10.40;99.90
78550;DHT22;68091;52.130;5.570;2023-04-16T09:13:55;10.60;99.90
78550;DHT22;68091;52.130;5.570;2023-04-16T09:16:22;10.60;99.90
78550;DHT22;68091;52.130;5.570;2023-04-16T09:18:50;10.60;99.90
78550;DHT22;68091;52.130;5.570;2023-04-16T09:21:16;10.60;99.90
78550;DHT22;68091;52.130;5.570;2023-04-16T09:23:42;10.80;99.90
78550;DHT22;68091;52.130;5.570;2023-04-16T09:26:08;10.70;99.90
78550;DHT22;68091;52.130;5.570;2023-04-16T09:28:41;10.60;99.90
78550;DHT22;68091;52.130;5.570;2023-04-16T09:31:16;10.80;99.90
78550;DHT22;68091;52.130;5.570;2023-04-16T09:33:42;10.90;99.90
78550;DHT22;68091;52.130;5.570;2023-04-16T09:36:09;11.10;99.90
78550;DHT22;68091;52.130;5.570;2023-04-16T09:38:52;11.10;99.90
78550;DHT22;68091;52.130;5.570;2023-04-16T09:41:19;11.20;99.90
78550;DHT22;68091;52.130;5.570;2023-04-16T09:43:57;11.30;99.90
78550;DHT22;68091;52.130;5.570;2023-04-16T09:46:28;11.30;99.90
78550;DHT22;68091;52.130;5.570;2023-04-16T09:48:54;11.20;99.90
78550;DHT22;68091;52.130;5.570;2023-04-16T09:51:20;11.10;99.90
78550;DHT22;68091;52.130;5.570;2023-04-16T09:53:46;11.20;99.90
78550;DHT22;68091;52.130;5.570;2023-04-16T09:56:16;11.30;99.90
78550;DHT22;68091;52.130;5.570;2023-04-16T09:58:41;11.30;99.90
78550;DHT22;68091;52.130;5.570;2023-04-16T10:01:09;11.20;99.90
78550;DHT22;68091;52.130;5.570;2023-04-16T10:03:38;11.30;99.90
78550;DHT22;68091;52.130;5.570;2023-04-16T10:06:23;11.30;99.90
78550;DHT22;68091;52.130;5.570;2023-04-16T10:08:51;11.20;99.90
78550;DHT22;68091;52.130;5.570;2023-04-16T10:11:19;11.20;99.90
78550;DHT22;68091;52.130;5.570;2023-04-16T10:13:45;11.20;99.90
78550;DHT22;68091;52.130;5.570;2023-04-16T10:16:11;11.30;99.90
78550;DHT22;68091;52.130;5.570;2023-04-16T10:18:41;11.40;99.90
78550;DHT22;68091;52.130;5.570;2023-04-16T10:21:08;11.50;99.90
78550;DHT22;68091;52.130;5.570;2023-04-16T10:23:38;11.30;99.90
78550;DHT22;68091;52.130;5.570;2023-04-16T10:26:04;11.40;99.90
78550;DHT22;68091;52.130;5.570;2023-04-16T10:28:31;11.40;99.90
78550;DHT22;68091;52.130;5.570;2023-04-16T10:31:01;11.50;99.90
78550;DHT22;68091;52.130;5.570;2023-04-16T10:33:33;11.30;99.90
78550;DHT22;68091;52.130;5.570;2023-04-16T10:36:15;11.40;99.90
78550;DHT22;68091;52.130;5.570;2023-04-16T10:38:45;11.50;99.90
78550;DHT22;68091;52.130;5.570;2023-04-16T10:41:11;11.60;99.90
78550;DHT22;68091;52.130;5.570;2023-04-16T10:43:45;11.70;99.90
78550;DHT22;68091;52.130;5.570;2023-04-16T10:46:35;11.70;99.90
78550;DHT22;68091;52.130;5.570;2023-04-16T10:49:12;11.80;99.90
78550;DHT22;68091;52.130;5.570;2023-04-16T10:51:39;11.90;99.90
78550;DHT22;68091;52.130;5.570;2023-04-16T10:54:18;12.00;99.90
78550;DHT22;68091;52.130;5.570;2023-04-16T10:56:45;11.90;99.90
78550;DHT22;68091;52.130;5.570;2023-04-16T10:59:11;11.90;99.90
78550;DHT22;68091;52.130;5.570;2023-04-16T11:01:42;12.00;99.90
78550;DHT22;68091;52.130;5.570;2023-04-16T11:14:51;11.80;99.90
78550;DHT22;68091;52.130;5.570;2023-04-16T11:17:19;11.70;99.90
78550;DHT22;68091;52.130;5.570;2023-04-16T11:19:45;11.60;99.90
78550;DHT22;68091;52.130;5.570;2023-04-16T11:22:12;11.50;99.90
78550;DHT22;68091;52.130;5.570;2023-04-16T11:24:39;11.40;99.90
78550;DHT22;68091;52.130;5.570;2023-04-16T11:27:06;11.40;99.90
78550;DHT22;68091;52.130;5.570;2023-04-16T11:29:32;11.40;99.90
78550;DHT22;68091;52.130;5.570;2023-04-16T11:31:58;11.50;99.90
78550;DHT22;68091;52.130;5.570;2023-04-16T11:34:24;11.50;99.90
78550;DHT22;68091;52.130;5.570;2023-04-16T11:36:51;11.70;99.90
78550;DHT22;68091;52.130;5.570;2023-04-16T11:39:18;11.70;99.90
78550;DHT22;68091;52.130;5.570;2023-04-16T11:41:48;11.60;99.90
78550;DHT22;68091;52.130;5.570;2023-04-16T11:44:25;11.60;99.90
78550;DHT22;68091;52.130;5.570;2023-04-16T11:46:52;11.80;99.90
78550;DHT22;68091;52.130;5.570;2023-04-16T11:49:28;11.50;99.90
78550;DHT22;68091;52.130;5.570;2023-04-16T11:51:55;11.40;99.90
78550;DHT22;68091;52.130;5.570;2023-04-16T11:54:23;11.20;99.90
78550;DHT22;68091;52.130;5.570;2023-04-16T11:56:51;11.20;99.90
78550;DHT22;68091;52.130;5.570;2023-04-16T11:59:21;11.30;99.90
78550;DHT22;68091;52.130;5.570;2023-04-16T12:01:49;11.40;99.90
78550;DHT22;68091;52.130;5.570;2023-04-16T12:04:19;11.40;99.90
78550;DHT22;68091;52.130;5.570;2023-04-16T12:07:12;11.40;99.90
78550;DHT22;68091;52.130;5.570;2023-04-16T12:09:42;11.60;99.90
78550;DHT22;68091;52.130;5.570;2023-04-16T12:12:29;11.70;99.90
78550;DHT22;68091;52.130;5.570;2023-04-16T12:14:55;11.80;99.90
78550;DHT22;68091;52.130;5.570;2023-04-16T12:17:24;11.70;99.90
78550;DHT22;68091;52.130;5.570;2023-04-16T12:20:03;11.60;99.90
78550;DHT22;68091;52.130;5.570;2023-04-16T12:22:34;11.50;99.90
78550;DHT22;68091;52.130;5.570;2023-04-16T12:25:14;11.50;99.90
78550;DHT22;68091;52.130;5.570;2023-04-16T12:27:47;11.40;99.90
78550;DHT22;68091;52.130;5.570;2023-04-16T12:30:16;11.60;99.90
78550;DHT22;68091;52.130;5.570;2023-04-16T12:32:46;11.60;99.90
78550;DHT22;68091;52.130;5.570;2023-04-16T12:35:13;11.40;99.90
78550;DHT22;68091;52.130;5.570;2023-04-16T12:37:39;11.40;99.90
78550;DHT22;68091;52.130;5.570;2023-04-16T12:40:06;11.50;99.90
78550;DHT22;68091;52.130;5.570;2023-04-16T12:42:33;11.70;99.90
78550;DHT22;68091;52.130;5.570;2023-04-16T12:45:03;11.80;99.90
78550;DHT22;68091;52.130;5.570;2023-04-16T12:47:30;11.80;99.90
78550;DHT22;68091;52.130;5.570;2023-04-16T12:49:56;12.00;99.90
78550;DHT22;68091;52.130;5.570;2023-04-16T12:52:23;11.90;99.90
78550;DHT22;68091;52.130;5.570;2023-04-16T12:54:49;12.00;99.90
78550;DHT22;68091;52.130;5.570;2023-04-16T12:57:15;12.00;99.90
78550;DHT22;68091;52.130;5.570;2023-04-16T12:59:41;11.80;99.90
78550;DHT22;68091;52.130;5.570;2023-04-16T13:02:06;11.70;99.90
78550;DHT22;68091;52.130;5.570;2023-04-16T13:04:33;11.80;99.90
78550;DHT22;68091;52.130;5.570;2023-04-16T13:06:59;11.80;99.90
78550;DHT22;68091;52.130;5.570;2023-04-16T13:09:25;11.70;99.90
78550;DHT22;68091;52.130;5.570;2023-04-16T13:11:51;11.70;99.90
78550;DHT22;68091;52.130;5.570;2023-04-16T13:14:17;11.70;99.90
78550;DHT22;68091;52.130;5.570;2023-04-16T13:16:43;11.80;99.90
78550;DHT22;68091;52.130;5.570;2023-04-16T13:19:09;11.90;99.90
78550;DHT22;68091;52.130;5.570;2023-04-16T13:21:35;12.00;99.90
78550;DHT22;68091;52.130;5.570;2023-04-16T13:24:01;12.00;99.90
78550;DHT22;68091;52.130;5.570;2023-04-16T13:26:26;12.10;99.90
78550;DHT22;68091;52.130;5.570;2023-04-16T13:28:52;12.10;99.90
78550;DHT22;68091;52.130;5.570;2023-04-16T13:31:19;12.10;99.90
78550;DHT22;68091;52.130;5.570;2023-04-16T13:33:46;12.00;99.90
78550;DHT22;68091;52.130;5.570;2023-04-16T13:36:12;12.00;99.90
78550;DHT22;68091;52.130;5.570;2023-04-16T13:38:38;11.80;99.90
78550;DHT22;68091;52.130;5.570;2023-04-16T13:41:04;11.80;99.90
78550;DHT22;68091;52.130;5.570;2023-04-16T13:43:31;11.80;99.90
78550;DHT22;68091;52.130;5.570;2023-04-16T13:45:57;11.90;99.90
78550;DHT22;68091;52.130;5.570;2023-04-16T13:48:23;12.00;99.90
78550;DHT22;68091;52.130;5.570;2023-04-16T13:50:49;11.90;99.90
78550;DHT22;68091;52.130;5.570;2023-04-16T13:53:15;11.80;99.90
78550;DHT22;68091;52.130;5.570;2023-04-16T13:55:41;11.90;99.90
78550;DHT22;68091;52.130;5.570;2023-04-16T13:58:07;12.20;99.90
78550;DHT22;68091;52.130;5.570;2023-04-16T14:00:33;12.20;99.90
78550;DHT22;68091;52.130;5.570;2023-04-16T14:02:59;12.30;99.90
78550;DHT22;68091;52.130;5.570;2023-04-16T14:05:25;12.10;99.90
78550;DHT22;68091;52.130;5.570;2023-04-16T14:07:51;12.00;99.90
78550;DHT22;68091;52.130;5.570;2023-04-16T14:10:17;12.20;99.90
78550;DHT22;68091;52.130;5.570;2023-04-16T14:12:43;12.20;99.90
78550;DHT22;68091;52.130;5.570;2023-04-16T14:15:10;12.20;99.90
78550;DHT22;68091;52.130;5.570;2023-04-16T14:17:41;12.20;99.90
78550;DHT22;68091;52.130;5.570;2023-04-16T14:20:09;12.10;99.90
78550;DHT22;68091;52.130;5.570;2023-04-16T14:22:35;12.20;99.90
78550;DHT22;68091;52.130;5.570;2023-04-16T14:25:01;12.20;99.90
78550;DHT22;68091;52.130;5.570;2023-04-16T14:27:27;12.20;99.90
78550;DHT22;68091;52.130;5.570;2023-04-16T14:29:53;12.10;99.90
78550;DHT22;68091;52.130;5.570;2023-04-16T14:32:19;12.10;99.90
78550;DHT22;68091;52.130;5.570;2023-04-16T14:34:48;12.20;99.90
78550;DHT22;68091;52.130;5.570;2023-04-16T14:37:17;12.10;99.90
78550;DHT22;68091;52.130;5.570;2023-04-16T14:39:43;12.10;99.90
78550;DHT22;68091;52.130;5.570;2023-04-16T14:42:08;12.20;99.90
78550;DHT22;68091;52.130;5.570;2023-04-16T14:44:35;12.50;99.90
78550;DHT22;68091;52.130;5.570;2023-04-16T14:47:01;12.70;99.90
78550;DHT22;68091;52.130;5.570;2023-04-16T14:49:26;12.70;99.90
78550;DHT22;68091;52.130;5.570;2023-04-16T14:51:52;12.80;99.90
78550;DHT22;68091;52.130;5.570;2023-04-16T14:54:18;12.80;99.90
78550;DHT22;68091;52.130;5.570;2023-04-16T14:56:45;12.80;99.90
78550;DHT22;68091;52.130;5.570;2023-04-16T14:59:11;13.00;99.90
78550;DHT22;68091;52.130;5.570;2023-04-16T15:01:38;13.20;99.90
78550;DHT22;68091;52.130;5.570;2023-04-16T15:04:06;13.10;99.90
78550;DHT22;68091;52.130;5.570;2023-04-16T15:06:35;13.20;99.90
78550;DHT22;68091;52.130;5.570;2023-04-16T15:09:01;13.20;99.90
78550;DHT22;68091;52.130;5.570;2023-04-16T15:11:28;13.20;99.90
78550;DHT22;68091;52.130;5.570;2023-04-16T15:13:57;13.30;99.90
78550;DHT22;68091;52.130;5.570;2023-04-16T15:16:23;13.50;99.90
78550;DHT22;68091;52.130;5.570;2023-04-16T15:18:49;13.50;99.90
78550;DHT22;68091;52.130;5.570;2023-04-16T15:21:15;13.30;99.90
78550;DHT22;68091;52.130;5.570;2023-04-16T15:23:41;13.20;99.90
78550;DHT22;68091;52.130;5.570;2023-04-16T15:26:07;13.30;99.90
78550;DHT22;68091;52.130;5.570;2023-04-16T15:28:35;13.10;99.90
78550;DHT22;68091;52.130;5.570;2023-04-16T15:31:01;13.20;99.90
78550;DHT22;68091;52.130;5.570;2023-04-16T15:33:27;13.20;99.90
78550;DHT22;68091;52.130;5.570;2023-04-16T15:35:52;13.10;99.90
78550;DHT22;68091;52.130;5.570;2023-04-16T15:38:18;12.90;99.90
78550;DHT22;68091;52.130;5.570;2023-04-16T15:40:45;12.80;99.90
78550;DHT22;68091;52.130;5.570;2023-04-16T15:43:12;12.80;99.90
78550;DHT22;68091;52.130;5.570;2023-04-16T15:45:38;12.80;99.90
78550;DHT22;68091;52.130;5.570;2023-04-16T15:48:04;12.80;99.90
78550;DHT22;68091;52.130;5.570;2023-04-16T15:50:30;12.90;99.90
78550;DHT22;68091;52.130;5.570;2023-04-16T15:52:56;12.80;99.90